Airfield :
LOGIN :

Register | Disclaimer

   EN    FR    IT 

 










Legend :    VFR   Marginal VFR   IFR   Intensive IFR   Very Intensive IFR
Visi :
Ceiling :
>= 8 km
>= 3000ft
5 to 8 km
1000 to 3000 ft
1500m to 5 km
500 to 1000 ft
800 to 1500m
200 to 500 ft
< 800m
< 200 ft
Symbols :   Thunderstorms  Fog  Heavy snow  Heavy precipitations  Wind > 20 kt
SIGMETs :     Misc.  Thunderstorms  Icing  Turbulence  Mountain Waves  Volcanic Ashes






- Airport Elevation : 7 ft
- IATA code : POW


LJPZ - Portoroz

CURRENT METAR :
  • 120000Z AUTO 12007KT 9999 NCD M00/M03 Q1007

EXPIRED METARs :
  • 112330Z AUTO 12006KT 9999 NCD M00/M03 Q1007
  • 112300Z AUTO 13008KT 9999 NCD 00/M04 Q1008
  • 112230Z AUTO 13008KT 9999 NCD 00/M04 Q1008
  • 112200Z AUTO 13006KT 9999 NCD M00/M04 Q1008
  • 112130Z AUTO 12006KT 9999 NCD 00/M04 Q1009

TAF TAF LJPZ
Valid from the 12 at 00:00 until the 12 at 09:00 UTC


112300Z 1200/1209 12005KT CAVOK



MET'MAP, your aeronautical weather chart ! - Copyright ORBIFLY December 2007 - Disclaimer

ORBIFLY MET'MAP TEAM :

Programming & Development : Alexandra Zaïnal
Concept & original design : Baudouin d'Aumeries
Assistance for programming : Marc-Olivier Méhu
Technical & hardware support : Manuel Goepfert

Contact : metmap@orbifly.com




SOURCES & CREDITS :

   NOAA